Time;durP1;ratioP1;P1;durP2;ratioP2;P2;SDS_P1;SDS_P2;PMS_P1;PMS_P2;Temp;Humidity;BMP_temperature;BMP_pressure;BME280_temperature;BME280_humidity;BME280_pressure;Samples;Min_cycle;Max_cycle;Signal;HPM_P1;HPM_P2
2021/05/18 00:00:19;;;;;;;17.25;6.85;;;;;;;9.81;100.00;101030.63;5217592;28;20029;-84
2021/05/18 00:02:50;;;;;;;15.18;7.35;;;;;;;9.80;100.00;101038.81;5231613;28;20024;-83
2021/05/18 00:05:22;;;;;;;24.05;8.25;;;;;;;9.80;100.00;101039.66;5231106;28;20036;-84
2021/05/18 00:13:32;;;;;;;20.05;7.72;;;;;;;9.83;100.00;101039.31;5228033;28;20400;-84
2021/05/18 00:16:04;;;;;;;26.98;7.38;;;;;;;9.79;100.00;101040.66;5228101;28;20021;-83
2021/05/18 00:18:36;;;;;;;25.45;7.68;;;;;;;9.81;100.00;101046.69;5228090;28;20068;-83
2021/05/18 00:21:07;;;;;;;28.80;7.55;;;;;;;9.86;100.00;101047.06;5227525;28;20480;-83
2021/05/18 00:23:37;;;;;;;23.92;7.30;;;;;;;9.83;100.00;101046.53;5228229;28;20154;-84
2021/05/18 00:26:09;;;;;;;24.33;7.63;;;;;;;9.86;100.00;101049.75;5227421;28;20025;-84
2021/05/18 00:28:39;;;;;;;24.52;8.02;;;;;;;9.83;100.00;101042.00;5227548;28;20017;-84
2021/05/18 00:31:10;;;;;;;12.82;6.80;;;;;;;9.82;100.00;101042.16;5227944;28;20032;-84
2021/05/18 00:33:43;;;;;;;28.73;7.78;;;;;;;9.70;100.00;101036.22;5226385;28;20066;-84
2021/05/18 00:36:13;;;;;;;27.23;7.85;;;;;;;9.70;100.00;101038.06;5227314;28;20032;-84
2021/05/18 00:38:44;;;;;;;30.52;7.20;;;;;;;9.71;100.00;101043.25;5209503;28;20047;-84
2021/05/18 00:41:15;;;;;;;21.92;8.32;;;;;;;9.64;100.00;101044.03;5227526;28;20017;-84
2021/05/18 00:43:45;;;;;;;30.38;9.00;;;;;;;9.62;100.00;101046.03;5227472;28;20032;-84
2021/05/18 00:46:17;;;;;;;32.60;8.38;;;;;;;9.56;100.00;101040.31;5227358;28;20021;-84
2021/05/18 00:48:57;;;;;;;32.33;8.25;;;;;;;9.59;100.00;101042.69;5227496;28;20032;-84
2021/05/18 00:51:27;;;;;;;28.00;8.43;;;;;;;9.62;100.00;101040.69;5226706;28;20546;-84
2021/05/18 00:54:01;;;;;;;28.33;7.97;;;;;;;9.62;100.00;101041.50;5226971;28;20049;-83
2021/05/18 00:59:04;;;;;;;35.40;8.20;;;;;;;9.52;100.00;101041.59;5226873;28;20029;-84
2021/05/18 01:01:34;;;;;;;26.00;7.35;;;;;;;9.57;100.00;101038.47;5225599;28;20077;-84
2021/05/18 01:04:05;;;;;;;29.23;8.15;;;;;;;9.53;100.00;101037.09;5231026;28;20422;-84
2021/05/18 01:06:36;;;;;;;32.92;8.38;;;;;;;9.46;100.00;101041.38;5230704;28;20017;-84
2021/05/18 01:09:10;;;;;;;29.45;8.25;;;;;;;9.47;100.00;101043.91;5232516;28;20025;-83
2021/05/18 01:11:46;;;;;;;29.05;8.07;;;;;;;9.46;100.00;101039.53;5232678;28;20043;-83
2021/05/18 01:14:19;;;;;;;34.03;8.02;;;;;;;9.49;100.00;101047.28;5230863;28;20025;-83
2021/05/18 01:16:51;;;;;;;29.23;8.50;;;;;;;9.55;100.00;101037.78;5231376;28;20025;-84
2021/05/18 01:19:24;;;;;;;27.13;7.50;;;;;;;9.53;100.00;101042.44;5230468;28;20045;-84
2021/05/18 01:21:57;;;;;;;25.88;8.70;;;;;;;9.50;100.00;101042.78;5229319;28;20108;-87
2021/05/18 01:24:28;;;;;;;30.08;7.72;;;;;;;9.53;100.00;101047.78;5228186;28;20025;-83
2021/05/18 01:26:58;;;;;;;33.58;8.63;;;;;;;9.56;100.00;101047.50;5228403;28;20128;-83
2021/05/18 01:29:29;;;;;;;28.55;8.32;;;;;;;9.51;100.00;101049.81;5227968;28;20035;-84
2021/05/18 01:32:02;;;;;;;22.60;7.97;;;;;;;9.47;100.00;101054.63;5228123;28;20021;-83
2021/05/18 01:34:32;;;;;;;27.63;9.20;;;;;;;9.48;100.00;101056.28;5227812;28;20025;-83
2021/05/18 01:37:04;;;;;;;43.40;10.30;;;;;;;9.47;100.00;101053.78;5227582;28;20104;-83
2021/05/18 01:45:19;;;;;;;29.17;9.45;;;;;;;9.43;100.00;101057.75;5227376;28;20029;-84
2021/05/18 01:47:56;;;;;;;30.25;8.90;;;;;;;9.45;100.00;101053.09;5227632;28;20112;-84
2021/05/18 01:50:28;;;;;;;31.50;8.15;;;;;;;9.39;100.00;101065.28;5227770;28;20021;-83
2021/05/18 01:52:59;;;;;;;26.00;8.75;;;;;;;9.40;100.00;101052.72;5227729;28;20155;-85
2021/05/18 01:55:49;;;;;;;34.15;9.43;;;;;;;9.43;100.00;101058.59;5227336;28;20031;-83
2021/05/18 01:58:19;;;;;;;22.60;8.07;;;;;;;9.36;100.00;101054.84;5227345;28;20116;-86
2021/05/18 02:00:50;;;;;;;39.10;9.82;;;;;;;9.41;100.00;101063.28;5227478;28;20440;-83
2021/05/18 02:03:21;;;;;;;30.10;8.30;;;;;;;9.47;100.00;101064.47;5227631;28;20029;-83
2021/05/18 02:05:52;;;;;;;31.67;10.18;;;;;;;9.39;100.00;101067.06;5225893;28;20119;-85
2021/05/18 02:08:23;;;;;;;29.38;9.35;;;;;;;9.36;100.00;101059.38;5226895;28;20086;-83
2021/05/18 02:10:53;;;;;;;23.75;7.85;;;;;;;9.38;100.00;101068.91;5227002;28;20396;-85
2021/05/18 02:13:24;;;;;;;32.05;8.73;;;;;;;9.40;100.00;101069.63;5226167;28;20021;-83
2021/05/18 02:16:03;;;;;;;36.72;11.93;;;;;;;9.40;100.00;101074.97;5226222;28;20448;-84
2021/05/18 02:18:53;;;;;;;29.80;8.57;;;;;;;9.45;100.00;101066.50;5227107;28;20056;-83
2021/05/18 02:21:51;;;;;;;32.05;10.23;;;;;;;9.43;100.00;101073.81;5227697;28;20020;-83
2021/05/18 02:24:40;;;;;;;27.73;9.98;;;;;;;9.46;100.00;101068.16;5226630;28;20285;-82
2021/05/18 02:27:11;;;;;;;42.28;9.82;;;;;;;9.57;100.00;101070.59;5226167;28;20025;-83
2021/05/18 02:29:41;;;;;;;31.05;10.52;;;;;;;9.61;100.00;101061.28;5226968;28;20025;-83
2021/05/18 02:32:12;;;;;;;42.72;11.95;;;;;;;9.62;100.00;101070.13;5226737;28;20047;-86
2021/05/18 02:34:42;;;;;;;25.63;9.65;;;;;;;9.56;100.00;101074.28;5226563;28;20469;-84
2021/05/18 02:37:13;;;;;;;37.58;11.05;;;;;;;9.63;100.00;101075.34;5226368;28;20028;-83
2021/05/18 02:39:44;;;;;;;29.60;9.48;;;;;;;9.63;100.00;101078.00;5226776;28;20025;-83
2021/05/18 02:42:15;;;;;;;33.15;10.15;;;;;;;9.58;100.00;101078.47;5225791;28;20048;-86
2021/05/18 02:50:23;;;;;;;28.30;10.73;;;;;;;9.65;100.00;101081.41;5224108;28;20025;-83
2021/05/18 02:52:54;;;;;;;34.50;10.55;;;;;;;9.64;100.00;101084.22;5227151;28;20025;-83
2021/05/18 02:55:37;;;;;;;37.30;11.95;;;;;;;9.62;100.00;101094.25;5227198;28;20468;-83
2021/05/18 02:58:09;;;;;;;32.17;11.10;;;;;;;9.66;100.00;101083.06;5226156;28;20026;-83
2021/05/18 03:00:40;;;;;;;35.42;11.95;;;;;;;9.64;100.00;101094.94;5226734;28;20024;-83
2021/05/18 03:03:11;;;;;;;33.40;12.07;;;;;;;9.59;100.00;101090.91;5226380;28;20420;-84
2021/05/18 03:05:43;;;;;;;34.33;11.63;;;;;;;9.62;100.00;101089.72;5227138;28;20028;-83
2021/05/18 03:08:14;;;;;;;37.33;11.40;;;;;;;9.57;100.00;101092.03;5226497;28;20044;-83
2021/05/18 03:10:44;;;;;;;32.88;12.48;;;;;;;9.57;100.00;101098.22;5226134;28;20056;-83
2021/05/18 03:13:15;;;;;;;41.65;14.02;;;;;;;9.60;100.00;101089.91;5226909;28;20036;-86
2021/05/18 03:15:46;;;;;;;31.92;12.55;;;;;;;9.64;100.00;101094.94;5239693;28;20033;-83
2021/05/18 03:18:16;;;;;;;39.20;11.60;;;;;;;9.65;100.00;101092.13;5226742;28;20035;-83
2021/05/18 03:20:47;;;;;;;52.17;14.30;;;;;;;9.57;100.00;101092.88;5234425;28;20523;-87
2021/05/18 03:23:17;;;;;;;32.13;12.55;;;;;;;9.54;100.00;101087.84;5225035;28;20546;-84
2021/05/18 03:25:48;;;;;;;45.00;13.63;;;;;;;9.48;100.00;101092.94;5226576;28;20017;-83
2021/05/18 03:28:20;;;;;;;50.88;14.80;;;;;;;9.39;100.00;101089.38;5226546;28;20379;-83
2021/05/18 03:36:11;;;;;;;41.55;13.55;;;;;;;9.31;100.00;101102.66;5204170;28;20086;-84
2021/05/18 03:38:44;;;;;;;41.47;14.30;;;;;;;9.23;100.00;101099.88;5226275;28;20048;-83
2021/05/18 03:41:19;;;;;;;34.15;14.68;;;;;;;9.19;100.00;101101.22;5225990;28;20048;-83
2021/05/18 03:44:04;;;;;;;50.40;15.23;;;;;;;9.13;100.00;101109.81;5224788;28;20013;-84
2021/05/18 03:54:54;;;;;;;46.00;14.30;;;;;;;9.00;100.00;101113.72;5226051;28;20116;-83
2021/05/18 04:03:17;;;;;;;42.78;14.55;;;;;;;9.02;100.00;101119.75;5226694;28;20021;-83
2021/05/18 04:19:24;;;;;;;48.60;15.65;;;;;;;9.14;100.00;101135.63;5229528;28;20037;-83
2021/05/18 04:25:01;;;;;;;42.80;14.57;;;;;;;9.23;100.00;101138.22;5229029;28;20028;-86
2021/05/18 04:38:59;;;;;;;45.63;14.70;;;;;;;9.41;100.00;101154.31;5242222;28;20602;-84
2021/05/18 04:41:50;;;;;;;55.13;13.75;;;;;;;9.41;100.00;101157.00;5242861;28;20036;-86
2021/05/18 04:52:34;;;;;;;33.95;12.32;;;;;;;9.54;100.00;101157.47;5238063;28;20088;-86
2021/05/18 05:00:47;;;;;;;38.45;13.07;;;;;;;9.62;100.00;101166.56;5218067;28;20033;-83
2021/05/18 05:08:50;;;;;;;42.13;11.63;;;;;;;9.85;100.00;101171.34;5218375;28;20518;-83
2021/05/18 05:14:15;;;;;;;41.72;12.43;;;;;;;10.03;100.00;101173.97;5228832;28;20029;-83
2021/05/18 05:16:46;;;;;;;35.78;11.60;;;;;;;10.11;100.00;101174.06;5218017;28;20484;-84
2021/05/18 05:19:17;;;;;;;32.25;12.10;;;;;;;10.22;100.00;101183.69;5227909;28;20056;-83
2021/05/18 05:21:48;;;;;;;33.63;12.95;;;;;;;10.24;100.00;101178.19;5228575;28;20055;-85
2021/05/18 05:24:19;;;;;;;33.15;10.80;;;;;;;10.26;100.00;101179.75;5228452;28;20063;-83
2021/05/18 05:26:51;;;;;;;36.13;12.23;;;;;;;10.50;100.00;101179.09;5228380;28;20022;-86
2021/05/18 05:29:23;;;;;;;30.02;11.00;;;;;;;10.69;100.00;101187.91;5228364;28;20083;-86
2021/05/18 05:31:55;;;;;;;33.00;10.07;;;;;;;10.60;100.00;101184.34;5228741;28;20435;-83
2021/05/18 05:34:25;;;;;;;30.88;10.57;;;;;;;10.79;100.00;101189.50;5228060;28;20032;-86
2021/05/18 05:36:56;;;;;;;41.40;14.43;;;;;;;10.87;100.00;101189.50;5228229;28;21596;-83
2021/05/18 05:39:26;;;;;;;24.23;9.90;;;;;;;11.30;100.00;101184.19;5228209;28;20108;-83
2021/05/18 05:41:57;;;;;;;29.42;10.95;;;;;;;11.40;100.00;101190.25;5228100;28;20025;-83
2021/05/18 05:44:28;;;;;;;29.25;8.95;;;;;;;11.68;100.00;101191.66;5228125;28;20020;-83
2021/05/18 05:46:58;;;;;;;23.90;8.35;;;;;;;11.99;100.00;101195.59;5228595;28;20178;-83
2021/05/18 05:49:29;;;;;;;23.75;9.38;;;;;;;12.21;100.00;101194.94;5227649;28;20116;-83
2021/05/18 05:52:00;;;;;;;22.13;9.50;;;;;;;12.34;100.00;101200.63;5228209;28;20480;-83
2021/05/18 05:54:31;;;;;;;23.45;10.50;;;;;;;12.65;100.00;101199.91;5227823;28;20484;-84
2021/05/18 05:57:02;;;;;;;61.42;27.30;;;;;;;12.93;100.00;101208.44;5228768;28;20064;-85
2021/05/18 05:59:32;;;;;;;32.17;10.45;;;;;;;12.63;100.00;101205.47;5239061;28;20082;-86
2021/05/18 06:02:04;;;;;;;19.92;8.60;;;;;;;12.74;100.00;101208.81;5238923;28;20020;-83
2021/05/18 06:04:34;;;;;;;32.92;8.70;;;;;;;12.89;100.00;101215.19;5235061;28;20021;-84
2021/05/18 06:07:05;;;;;;;22.13;8.10;;;;;;;13.89;100.00;101218.94;5225976;28;20047;-84
2021/05/18 06:09:37;;;;;;;24.40;7.05;;;;;;;13.93;100.00;101214.88;5224305;28;20107;-84
2021/05/18 06:12:30;;;;;;;18.98;7.53;;;;;;;14.09;100.00;101211.22;5225406;28;20502;-84
2021/05/18 06:37:25;;;;;;;19.17;7.63;;;;;;;12.44;100.00;101241.66;5225002;28;20035;-84
2021/05/18 06:42:47;;;;;;;20.02;7.70;;;;;;;12.34;100.00;101237.47;5225640;28;20379;-84
2021/05/18 06:48:07;;;;;;;23.77;8.60;;;;;;;12.16;100.00;101246.53;5224186;28;20547;-86
2021/05/18 06:50:38;;;;;;;17.23;7.38;;;;;;;12.24;100.00;101250.22;5224690;28;20017;-84
2021/05/18 06:53:08;;;;;;;16.98;7.55;;;;;;;12.13;100.00;101263.00;5224800;28;20484;-85
2021/05/18 06:55:39;;;;;;;16.17;7.43;;;;;;;12.02;100.00;101271.41;5223896;28;20028;-85
2021/05/18 06:58:13;;;;;;;19.35;7.55;;;;;;;11.89;100.00;101268.34;5216968;28;20024;-84
2021/05/18 07:00:45;;;;;;;16.85;8.77;;;;;;;11.78;100.00;101263.25;5209936;28;20033;-84
2021/05/18 07:03:20;;;;;;;19.90;9.68;;;;;;;11.84;100.00;101281.44;5222746;28;20461;-84
2021/05/18 07:05:58;;;;;;;18.83;9.75;;;;;;;11.73;100.00;101273.63;5223918;28;20028;-85
2021/05/18 07:10:58;;;;;;;19.30;10.05;;;;;;;11.79;100.00;101276.50;5223684;28;20039;-84
2021/05/18 07:13:29;;;;;;;18.58;10.65;;;;;;;11.87;100.00;101284.63;5222450;28;20053;-84
2021/05/18 07:15:59;;;;;;;16.80;9.80;;;;;;;11.95;100.00;101286.53;5223119;28;20028;-85
2021/05/18 07:18:30;;;;;;;21.10;11.20;;;;;;;12.06;100.00;101286.19;5223246;28;20021;-84
2021/05/18 07:21:02;;;;;;;20.30;9.93;;;;;;;12.05;100.00;101287.22;5223710;28;20028;-84
2021/05/18 07:23:33;;;;;;;19.17;10.02;;;;;;;12.18;100.00;101290.25;5222829;28;20024;-86
2021/05/18 07:26:04;;;;;;;20.98;11.05;;;;;;;12.12;100.00;101293.59;5223522;28;20502;-86
2021/05/18 07:28:35;;;;;;;20.02;11.60;;;;;;;12.19;100.00;101296.47;5223366;28;20021;-86
2021/05/18 07:31:06;;;;;;;20.25;12.93;;;;;;;12.22;100.00;101293.44;5238754;28;20033;-86
2021/05/18 07:33:37;;;;;;;21.23;13.40;;;;;;;12.05;100.00;101294.41;5223351;28;20027;-86
2021/05/18 07:36:09;;;;;;;21.02;12.75;;;;;;;12.07;100.00;101293.25;5226984;28;20025;-86
2021/05/18 07:38:41;;;;;;;23.65;14.68;;;;;;;12.19;100.00;101305.38;5223402;28;20090;-87
2021/05/18 07:41:12;;;;;;;23.88;13.25;;;;;;;12.38;100.00;101306.06;5221993;28;20064;-86
2021/05/18 07:43:42;;;;;;;18.05;11.90;;;;;;;12.60;100.00;101308.13;5224673;28;20689;-86
2021/05/18 07:46:17;;;;;;;16.98;11.48;;;;;;;12.51;100.00;101294.81;5227287;28;20100;-87
2021/05/18 07:59:38;;;;;;;18.02;11.48;;;;;;;12.60;100.00;101305.44;5227491;28;20535;-85
2021/05/18 08:07:30;;;;;;;13.00;8.35;;;;;;;12.55;100.00;101301.53;5226440;28;20036;-85
2021/05/18 08:10:10;;;;;;;14.60;9.07;;;;;;;12.50;100.00;101312.81;5227739;28;20473;-85
2021/05/18 08:12:41;;;;;;;16.50;10.45;;;;;;;12.43;100.00;101311.78;5228213;28;20105;-84
2021/05/18 08:46:46;;;;;;;11.90;8.50;;;;;;;12.88;100.00;101313.13;5228050;28;20090;-84
2021/05/18 09:33:54;;;;;;;11.02;6.13;;;;;;;14.54;100.00;101303.19;5225859;28;20075;-85
2021/05/18 09:44:14;;;;;;;10.20;5.55;;;;;;;14.57;100.00;101306.38;5225346;28;20089;-86
2021/05/18 10:36:13;;;;;;;3.75;2.60;;;;;;;17.31;68.50;101293.97;5224407;28;20509;-86
2021/05/18 10:38:46;;;;;;;5.40;2.80;;;;;;;16.91;69.58;101296.44;5224606;28;20083;-86
2021/05/18 10:41:17;;;;;;;6.05;3.33;;;;;;;16.30;71.66;101294.19;5226122;28;20021;-85
2021/05/18 10:43:56;;;;;;;6.22;3.05;;;;;;;15.92;76.46;101300.88;5226689;28;20503;-85
2021/05/18 10:46:32;;;;;;;7.60;4.35;;;;;;;15.65;88.75;101303.22;5225851;28;20037;-87
2021/05/18 10:49:06;;;;;;;6.70;4.50;;;;;;;15.78;100.00;101292.59;5215779;28;20057;-85
2021/05/18 10:51:48;;;;;;;10.48;4.85;;;;;;;16.05;100.00;101290.19;5223715;28;20408;-85
2021/05/18 10:54:18;;;;;;;11.68;4.35;;;;;;;16.35;100.00;101287.38;5230401;28;20397;-85
2021/05/18 10:56:53;;;;;;;4.97;3.90;;;;;;;16.74;90.43;101281.50;5225289;28;20029;-85
2021/05/18 10:59:26;;;;;;;4.55;3.40;;;;;;;16.84;83.66;101282.00;5224474;28;20065;-85
2021/05/18 11:02:00;;;;;;;13.73;3.13;;;;;;;17.16;82.11;101287.84;5225794;28;20029;-85
2021/05/18 11:04:34;;;;;;;8.18;3.30;;;;;;;17.51;73.38;101288.66;5225517;28;20508;-85
2021/05/18 11:07:07;;;;;;;6.57;3.33;;;;;;;17.26;75.38;101291.88;5225830;28;20154;-86
2021/05/18 11:09:39;;;;;;;5.18;3.00;;;;;;;16.96;70.27;101290.41;5224552;28;20029;-84
2021/05/18 11:12:12;;;;;;;4.35;2.72;;;;;;;16.50;73.87;101293.56;5224658;28;20400;-85
2021/05/18 11:14:46;;;;;;;6.65;3.38;;;;;;;16.26;74.29;101295.59;5223475;28;20029;-85
2021/05/18 11:17:21;;;;;;;5.63;3.20;;;;;;;16.18;78.58;101303.03;5225579;28;20037;-85
2021/05/18 11:19:58;;;;;;;;;;;;;;;16.13;78.68;101300.91;5228374;28;20025;-85
2021/05/18 11:25:34;;;;;;;9.80;2.85;;;;;;;15.87;67.25;101306.84;5229734;28;20028;-85
2021/05/18 11:28:08;;;;;;;4.15;2.60;;;;;;;16.04;76.04;101293.94;5230248;28;20028;-85
2021/05/18 11:30:39;;;;;;;5.70;2.47;;;;;;;16.34;71.96;101294.66;5228958;28;20024;-86
2021/05/18 11:33:10;;;;;;;5.95;2.05;;;;;;;16.48;61.28;101296.47;5230037;28;20531;-86
2021/05/18 11:35:41;;;;;;;3.88;2.15;;;;;;;16.75;63.45;101292.13;5228194;28;20116;-85
2021/05/18 11:38:15;;;;;;;6.47;2.72;;;;;;;16.96;72.59;101299.38;5211634;28;20029;-85
2021/05/18 11:40:51;;;;;;;3.38;2.30;;;;;;;17.41;68.72;101296.34;5215594;28;20035;-84
2021/05/18 11:43:25;;;;;;;6.88;2.67;;;;;;;17.55;62.50;101296.22;5229238;28;20028;-85
2021/05/18 11:46:05;;;;;;;5.50;2.33;;;;;;;16.95;57.41;101299.59;5229470;28;20036;-85
2021/05/18 11:48:40;;;;;;;3.22;1.67;;;;;;;16.74;57.44;101300.47;5230856;28;20063;-85
2021/05/18 11:51:13;;;;;;;2.77;2.00;;;;;;;16.72;59.43;101295.25;5229129;28;20021;-85
2021/05/18 11:53:47;;;;;;;4.25;1.77;;;;;;;16.86;60.10;101300.75;5216817;28;20052;-85
2021/05/18 11:56:22;;;;;;;3.63;1.90;;;;;;;16.66;61.25;101306.81;5230752;28;20021;-85
2021/05/18 11:58:58;;;;;;;;;;;;;;;16.76;64.73;101293.81;5230462;28;20048;-85
2021/05/18 12:01:29;;;;;;;2.55;1.65;;;;;;;17.17;68.37;101295.81;5230028;28;20368;-85
2021/05/18 12:04:08;;;;;;;1.80;1.40;;;;;;;17.49;60.12;101299.72;5230388;28;20021;-85
2021/05/18 12:06:52;;;;;;;2.85;0.98;;;;;;;17.39;54.77;101303.84;5230274;28;20021;-85
2021/05/18 12:09:23;;;;;;;3.00;1.20;;;;;;;17.23;55.97;101299.59;5229911;28;20020;-85
2021/05/18 12:11:57;;;;;;;3.40;1.40;;;;;;;16.90;55.76;101305.59;5230380;28;20029;-85
2021/05/18 12:14:28;;;;;;;1.90;1.00;;;;;;;17.09;57.31;101299.50;5229454;28;20245;-86
2021/05/18 12:16:59;;;;;;;1.38;1.00;;;;;;;17.09;54.64;101304.91;5229952;28;20033;-85
2021/05/18 12:19:29;;;;;;;2.30;0.80;;;;;;;17.29;54.97;101304.22;5230061;28;20070;-85
2021/05/18 12:22:00;;;;;;;2.78;0.90;;;;;;;17.47;60.25;101309.97;5237729;28;20025;-85
2021/05/18 12:24:31;;;;;;;2.83;1.20;;;;;;;17.53;52.19;101301.00;5245458;28;20435;-85
2021/05/18 12:27:04;;;;;;;3.00;1.00;;;;;;;17.74;57.20;101300.09;5229277;28;20021;-86
2021/05/18 12:29:44;;;;;;;2.42;0.90;;;;;;;17.92;51.14;101298.69;5228105;28;20032;-85
2021/05/18 12:32:18;;;;;;;4.43;1.65;;;;;;;17.81;49.37;101294.69;5229160;28;20100;-85
2021/05/18 12:34:52;;;;;;;1.50;0.98;;;;;;;17.31;50.17;101297.53;5229625;28;20044;-86
2021/05/18 12:37:33;;;;;;;1.42;1.00;;;;;;;16.89;52.59;101311.22;5229996;28;20032;-85
2021/05/18 12:40:09;;;;;;;2.42;1.13;;;;;;;16.58;54.53;101313.22;5228433;28;20179;-85
2021/05/18 12:42:42;;;;;;;2.03;1.20;;;;;;;16.80;55.68;101307.81;5229321;28;20028;-85
2021/05/18 12:45:16;;;;;;;2.45;0.80;;;;;;;17.06;54.43;101320.72;5231740;28;20032;-85
2021/05/18 12:47:53;;;;;;;1.80;1.13;;;;;;;17.02;53.27;101314.03;5231175;28;20108;-85
2021/05/18 12:50:34;;;;;;;0.82;0.50;;;;;;;17.04;53.97;101311.97;5230196;28;20368;-86
2021/05/18 12:53:06;;;;;;;2.42;0.60;;;;;;;17.33;52.71;101309.03;5231139;28;20029;-85
2021/05/18 12:55:41;;;;;;;2.75;0.75;;;;;;;17.71;55.45;101322.16;5227950;28;20530;-85
2021/05/18 12:58:23;;;;;;;1.40;0.90;;;;;;;18.21;64.52;101322.78;5224621;28;20582;-85
2021/05/18 13:01:12;;;;;;;3.05;0.90;;;;;;;18.93;53.63;101314.97;5228521;28;20032;-86
2021/05/18 13:03:44;;;;;;;2.35;0.90;;;;;;;19.12;50.45;101323.09;5217605;28;20025;-86
2021/05/18 13:06:14;;;;;;;4.57;1.25;;;;;;;18.50;48.98;101318.88;5227517;28;20036;-85
2021/05/18 13:08:45;;;;;;;1.80;0.88;;;;;;;18.25;51.81;101334.09;5227509;28;20037;-85
2021/05/18 13:13:52;;;;;;;2.60;0.70;;;;;;;17.96;51.79;101333.34;5227977;28;20484;-85
2021/05/18 13:16:30;;;;;;;3.17;0.90;;;;;;;18.14;52.49;101326.53;5227947;28;20025;-85
2021/05/18 13:19:04;;;;;;;3.97;1.25;;;;;;;18.08;50.09;101333.63;5227573;28;20518;-85
2021/05/18 13:21:42;;;;;;;6.07;1.40;;;;;;;17.88;50.50;101333.56;5228280;28;20107;-85
2021/05/18 13:26:44;;;;;;;1.25;0.85;;;;;;;18.02;50.42;101329.00;5228296;28;20039;-85
2021/05/18 13:29:18;;;;;;;2.83;0.90;;;;;;;17.91;50.00;101327.69;5240701;28;20033;-85
2021/05/18 13:31:51;;;;;;;1.45;0.95;;;;;;;17.91;48.31;101329.59;5228408;28;20258;-86
2021/05/18 13:34:22;;;;;;;1.98;0.73;;;;;;;18.25;47.90;101334.91;5227101;28;20025;-85
2021/05/18 13:36:52;;;;;;;3.33;0.93;;;;;;;17.98;48.16;101330.47;5227323;28;20045;-85
2021/05/18 13:39:25;;;;;;;1.65;1.00;;;;;;;17.93;51.94;101330.22;5227465;28;20021;-85
2021/05/18 13:41:56;;;;;;;2.97;1.10;;;;;;;18.08;50.55;101345.31;5226199;28;20029;-86
2021/05/18 13:44:27;;;;;;;2.60;1.05;;;;;;;17.94;49.98;101345.47;5226593;28;20073;-85
2021/05/18 13:46:58;;;;;;;2.42;1.08;;;;;;;17.86;52.00;101338.34;5226719;28;20511;-86
2021/05/18 13:49:28;;;;;;;3.15;1.10;;;;;;;17.94;51.72;101337.34;5226411;28;20085;-86
2021/05/18 13:51:59;;;;;;;2.38;1.10;;;;;;;18.21;52.45;101344.50;5226348;28;20032;-85
2021/05/18 13:54:30;;;;;;;3.45;0.80;;;;;;;18.14;48.23;101337.41;5226206;28;20087;-85
2021/05/18 13:57:00;;;;;;;4.72;1.10;;;;;;;17.80;50.33;101331.84;5227384;28;20127;-85
2021/05/18 13:59:30;;;;;;;1.35;0.80;;;;;;;17.89;49.65;101339.81;5226881;28;20396;-85
2021/05/18 14:02:01;;;;;;;5.35;0.93;;;;;;;17.66;49.39;101330.06;5226713;28;20468;-85
2021/05/18 14:04:32;;;;;;;1.60;0.75;;;;;;;17.38;50.75;101330.13;5226043;28;20074;-84
2021/05/18 14:07:39;;;;;;;2.15;0.88;;;;;;;17.20;50.36;101330.63;5226057;28;20033;-85
2021/05/18 14:10:10;;;;;;;2.33;0.90;;;;;;;17.18;53.00;101331.88;5216004;28;20029;-85
2021/05/18 14:12:40;;;;;;;7.20;4.40;;;;;;;17.41;52.18;101323.47;5226290;28;20028;-85
2021/05/18 14:15:11;;;;;;;8.30;3.80;;;;;;;17.56;50.21;101327.72;5225587;28;20029;-85
2021/05/18 14:17:42;;;;;;;7.03;1.23;;;;;;;17.21;49.93;101337.72;5226385;28;20028;-85
2021/05/18 14:20:13;;;;;;;9.73;2.58;;;;;;;16.74;49.57;101328.41;5230276;28;20037;-85
2021/05/18 14:22:44;;;;;;;6.00;1.00;;;;;;;16.66;49.39;101322.25;5227639;28;20446;-85
2021/05/18 14:25:14;;;;;;;7.03;3.20;;;;;;;16.97;49.89;101325.47;5226337;28;20025;-85
2021/05/18 14:27:45;;;;;;;2.28;0.70;;;;;;;17.27;51.97;101328.81;5226926;28;20029;-84
2021/05/18 14:30:16;;;;;;;2.05;0.70;;;;;;;17.54;49.70;101323.53;5226445;28;20400;-85
2021/05/18 14:32:46;;;;;;;4.47;1.10;;;;;;;17.69;49.42;101331.56;5228653;28;20032;-85
2021/05/18 14:35:17;;;;;;;1.40;0.82;;;;;;;17.80;48.38;101331.84;5225345;28;20115;-85
2021/05/18 14:37:54;;;;;;;4.70;0.80;;;;;;;17.85;46.15;101336.66;5225530;28;20053;-85
2021/05/18 14:40:40;;;;;;;1.05;0.70;;;;;;;17.55;46.83;101322.50;5225430;28;20036;-84
2021/05/18 14:43:48;;;;;;;1.27;0.98;;;;;;;17.54;50.04;101323.53;5225582;28;20021;-85
2021/05/18 14:46:17;;;;;;;1.58;1.30;;;;;;;17.76;47.54;101329.72;5225886;28;20480;-85
2021/05/18 14:57:13;;;;;;;1.73;0.63;;;;;;;17.69;45.27;101331.56;5219870;28;20024;-85
2021/05/18 14:59:43;;;;;;;10.20;5.22;;;;;;;17.34;45.91;101323.44;5225108;28;20029;-85
2021/05/18 15:02:14;;;;;;;12.05;6.30;;;;;;;17.58;47.02;101332.97;5225340;28;20721;-85
2021/05/18 15:04:44;;;;;;;11.70;6.75;;;;;;;17.60;46.43;101326.28;5227922;28;20025;-84
2021/05/18 15:07:15;;;;;;;1.15;0.52;;;;;;;17.70;47.03;101328.63;5226519;28;20087;-85
2021/05/18 15:09:46;;;;;;;4.90;1.40;;;;;;;17.72;49.03;101336.56;5225515;28;20028;-85
2021/05/18 15:12:17;;;;;;;2.75;0.70;;;;;;;17.91;45.69;101335.84;5225487;28;20051;-85
2021/05/18 15:14:47;;;;;;;3.00;0.60;;;;;;;18.05;46.25;101325.88;5225483;28;20021;-84
2021/05/18 15:17:18;;;;;;;1.25;0.60;;;;;;;17.99;46.65;101332.13;5225186;28;20369;-85
2021/05/18 15:19:52;;;;;;;3.40;1.13;;;;;;;17.86;45.74;101336.44;5224804;28;20060;-85
2021/05/18 15:22:22;;;;;;;5.60;1.00;;;;;;;17.79;46.48;101337.47;5225019;28;20495;-85
2021/05/18 15:24:53;;;;;;;2.70;0.60;;;;;;;17.93;45.73;101335.66;5225379;28;20039;-85
2021/05/18 15:27:26;;;;;;;181.65;94.45;;;;;;;17.96;46.21;101343.38;5225641;28;20051;-85
2021/05/18 15:29:57;;;;;;;6.35;4.10;;;;;;;18.02;44.78;101342.56;5224232;28;20064;-85
2021/05/18 15:32:27;;;;;;;4.20;2.08;;;;;;;18.09;45.06;101338.00;5224526;28;20052;-85
2021/05/18 15:34:58;;;;;;;2.38;0.80;;;;;;;18.09;45.39;101346.16;5223694;28;20072;-85
2021/05/18 15:37:28;;;;;;;2.28;0.90;;;;;;;18.02;47.01;101346.16;5224739;28;20028;-85
2021/05/18 15:39:59;;;;;;;2.70;0.77;;;;;;;18.13;45.05;101346.59;5225253;28;20033;-85
2021/05/18 15:42:29;;;;;;;1.45;0.85;;;;;;;18.20;45.39;101348.28;5225256;28;20048;-84
2021/05/18 15:45:04;;;;;;;3.65;0.93;;;;;;;18.12;41.50;101356.59;5224849;28;20434;-85
2021/05/18 15:47:36;;;;;;;3.70;1.45;;;;;;;17.94;42.44;101345.47;5225067;28;20480;-85
2021/05/18 15:50:08;;;;;;;6.43;1.27;;;;;;;17.84;45.43;101345.84;5224753;28;20515;-85
2021/05/18 15:52:38;;;;;;;3.53;1.00;;;;;;;18.01;47.95;101349.03;5225458;28;20029;-85
2021/05/18 15:55:09;;;;;;;2.20;0.90;;;;;;;18.18;44.03;101354.97;5223676;28;20111;-85
2021/05/18 15:57:39;;;;;;;1.30;0.90;;;;;;;17.88;45.63;101351.72;5220324;28;20040;-85
2021/05/18 16:00:10;;;;;;;1.52;0.88;;;;;;;17.93;46.05;101335.66;5224794;28;20147;-85
2021/05/18 16:02:42;;;;;;;3.03;0.80;;;;;;;17.94;46.54;101350.91;5225999;28;20036;-85
2021/05/18 16:05:13;;;;;;;1.00;0.80;;;;;;;17.88;45.42;101354.44;5228272;28;20512;-85
2021/05/18 16:07:50;;;;;;;9.80;8.30;;;;;;;17.86;45.39;101352.72;5227860;28;20036;-84
2021/05/18 16:10:21;;;;;;;11.55;8.32;;;;;;;17.86;44.05;101366.31;5228790;28;20415;-85
2021/05/18 16:12:52;;;;;;;2.75;1.20;;;;;;;17.83;42.67;101366.72;5229183;28;20036;-85
2021/05/18 16:15:22;;;;;;;2.38;2.17;;;;;;;17.74;45.98;101354.34;5228454;28;20123;-85
2021/05/18 16:17:53;;;;;;;1.70;0.70;;;;;;;17.91;46.29;101365.69;5228230;28;20025;-85
2021/05/18 16:20:23;;;;;;;3.72;1.50;;;;;;;17.75;45.63;101358.75;5228084;28;20021;-85
2021/05/18 16:22:53;;;;;;;3.88;1.13;;;;;;;17.84;45.67;101364.84;5228868;28;20055;-85
2021/05/18 16:25:24;;;;;;;3.60;1.13;;;;;;;17.94;45.61;101369.91;5229268;28;20032;-85
2021/05/18 16:27:54;;;;;;;3.78;0.88;;;;;;;17.64;45.95;101353.84;5228893;28;20025;-85